Aérodrome :
LOGIN :

S'inscrire | Disclaimer

   EN    FR    IT 

 










Légende :    VFR   VFR Marginal   IFR   IFR Intensif   IFR Très Intensif
Visi : 
Plafond : 
>= 8 km
>= 3000ft
5 à 8 km
1000 à 3000 ft
1500m à 5 km
500 à 1000 ft
800 à 1500m
200 à 500 ft
< 800m
< 200 ft
Symboles :   Orages  Brouillard  Fortes neiges  Fortes précipitations  Vent > 20 kt
SIGMETs :   Divers  Orages  Givrage  Turbulence  Onde Orograph.  Cendres Volcan.







- Altitude de l'aérodrome : 1213 ft
- Code IATA : SCQ


LEST - Santiago de Compostela

DERNIER METAR :
  • 181500Z 22013G23KT 170V280 9999 SCT006 BKN009 BKN014 16/14 Q1010 TEMPO RA

METARs EXPIRÉS :
  • 181430Z 20015G27KT 160V250 6000 -RA BKN009 OVC014 15/15 Q1010 TEMPO RA
  • 181412Z 19015G25KT 170V230 9999 SCT007 BKN014 OVC021 15/15 Q1010 RERA TEMPO RA
  • 181400Z 20011KT 170V240 4000 RA SCT008 BKN016 OVC024 15/15 Q1010 TEMPO 6000 -RA
  • 181344Z 21010KT 170V240 4000 RA SCT010 BKN019 OVC032 15/15 Q1010 TEMPO 6000 -RA
  • 181330Z 21009KT 170V290 6000 -RA SCT010 BKN019 OVC032 15/15 Q1010 TEMPO RA
  • 181300Z 20013KT 170V230 9999 -RA SCT028 BKN035 BKN042 16/14 Q1009 TEMPO RA
  • 181230Z 20013KT 170V240 9999 SCT028 BKN036 17/14 Q1009 NOSIG
  • 181200Z 19013KT 9999 BKN027 BKN036 18/13 Q1010 NOSIG

TAF TAF LEST
Valide du 18 à 12h jusqu'au 19 à 12h UTC


181100Z 1812/1912 20009KT 9999 SCT005 BKN015 TX19/1815Z TN14/1906Z
TEMPO 1812/1820 18017G30KT
TEMPO 1812/1824 RA
TEMPO 1812/1820 3000 SHRA SCT030TCU
TEMPO 1823/1909 3000 -RA BR
TEMPO 1900/1909 0800 BCFG BKN005
PROB40
TEMPO 1900/1906 0350 FG VV001
TEMPO 1900/1912 26010KT
Pas de NOTAMs connus pour ce terrain.



MET'MAP, la Météo Aéronautique d'un coup d'oeil ! - Copyright ORBIFLY Décembre 2007 - Disclaimer

ORBIFLY MET'MAP TEAM :

Programmation & Développement : Alexandra Zaïnal
Conception & Développement : Baudouin d'Aumeries
Co-Programmation & Développement : Marc-Olivier Méhu
Soutien technique & logistique : Manuel Goepfert

Contact : metmap@orbifly.com




SOURCES & CREDITS :

   NOAA